Tamsweg, Austria
Current Conditions -  °F | °C
As of 8:20 AM on Friday 19 Dec 2014 (Local Time) from LOWK Reporting Station
Light Fog Light Fog  
Wind Chill: 32°   Ceiling: Unl
Heat Index: 32°   Visibility: 0.75mi
Dew Point: 32°   Wind: 3mph
Humidity: 100%   Direction: 280°W
Pressure: 30.15"   Gusts: NA
Location:  47.14°N, 13.8°E
Report Text: LOWK 190620Z 28003KT 230V330 1200 BCFG FEW002 SCT220 00/M00 Q1021 TEMPO 3000 BR BKN002
Loading
Personal Weather Stations






























Interactive Weather Map New forecast layout! Learn more

10-Day Weather Forecast

Advertisements
Track Severe Weather on mobile